map of UDJ home
Great Circle Mapper logo
UDJ - Airport
Location
City:  Uzhgorod, Ukraine
ICAO / IATA:UKLU / UDJ

Details
Type:Airport (Aerodrome, Airfield)
Use:International (customs port of entry)
Latitude:4838'03"N (48.634278)
Longitude:2215'48"E (22.263356)
Datum:WGS 1984
Elevation:383 ft (117 m)
Runways:1
Longest:6686 × 131 ft (2038 × 40 m), paved

Time
Time Zone:UTC+2 (DST+3)
Local Time:

Weather
METAR:UKLU 011200Z 15001MPS 3000 BR OVC005 04/03 Q1027 NOSIG

Related Locations
Nearby:
Farthest:CHT: 11484 mi / 18482 km
Waitangi [Tuuta], Chatham Islands, NZ

Find:

   beyond  
but within

Other Information
Maps:
NOTAMs:
Links:
Sources:

  
flag of Ukraine   

Sectional Chart

Flight Planning
at skyvector.com

Satellite Image

Google Maps Satellite View

 

Copyright © 2004-2014 Karl L. Swartz. All rights reserved.
The Great Circle Mapper name and logo are trademarks of the Great Circle Mapper.
All other trademarks mentioned herein belong to their respective owners.
Please see credits for attibutions and further copyright information.

  Follow gcmap on Facebook Follow gcmap on Twitter

hCard Microformat

Geo Microformat